2012-04-30 64 27

From Geo Hashing
Jump to: navigation, search

Mon 30 Apr 2012 in 64,27:
64.3992836, 27.2468281

peeron geohashing.info google osm bing/os kml crox


[edit] Location

In the very edge of border between county of Vaala and Paltamo.

- - -

Eipäs osaa sanoa Paltamon eli Vaalan puolella tuo olisi.

[edit] Participants

  • PPP from Perhe-K
  • No visible trace of any other earlier activity of hashing.

- - - -

  • PPP GC-ryhmästä Perhe-K
  • Eihän täällä kukaan ole vielä liikunut näillä asioilla

[edit] Expedition

By looking of the maps from karttapaikka this seems to fall in the small woods near the road a short stone throw from the lake and indeed there it was also in real world.

- - - -

Kartapaikan kartasta ja ilmakuvasta katsoen näytti, että tälle olisi helppo päästä vaikkakin aivan lähistöllä on kesä? asutusta tai muita rakennuksia.

[edit] Weather & Sky

METAR EFKI 301050Z 26012KT CAVOK 09/M01 Q1018=

Half cloudy or splashes of sun shine?

- - - -

Puoli pilvistä vai puoli aurinkoista?

[edit] Photos